createdAt,value
2022-09-07T00:01:26.281Z,6.50
2022-09-07T00:03:56.254Z,6.43
2022-09-07T00:06:25.483Z,7.20
2022-09-07T00:08:54.370Z,6.50
2022-09-07T00:11:23.592Z,5.40
2022-09-07T00:13:52.087Z,6.40
2022-09-07T00:16:24.747Z,6.90
2022-09-07T00:18:55.703Z,5.53
2022-09-07T00:21:25.421Z,7.30
2022-09-07T00:23:55.359Z,7.07
2022-09-07T00:26:26.542Z,6.75
2022-09-07T00:28:58.551Z,6.28
2022-09-07T00:31:29.825Z,6.68
2022-09-07T00:34:00.515Z,6.78
2022-09-07T00:36:29.815Z,7.03
2022-09-07T00:38:59.673Z,6.88
2022-09-07T00:41:28.839Z,6.15
2022-09-07T00:43:58.808Z,5.90
2022-09-07T00:46:32.126Z,6.07
2022-09-07T00:49:03.823Z,6.05
2022-09-07T00:51:34.826Z,6.75
2022-09-07T00:54:07.186Z,6.28
2022-09-07T00:56:38.528Z,5.63
2022-09-07T00:59:08.124Z,6.75
2022-09-07T01:01:39.315Z,6.80
2022-09-07T01:04:09.160Z,6.45
2022-09-07T01:06:39.777Z,6.45
2022-09-07T01:09:11.507Z,6.20
2022-09-07T01:11:40.846Z,6.00
2022-09-07T01:14:12.158Z,6.47
2022-09-07T01:16:53.549Z,7.07
2022-09-07T01:20:01.029Z,5.97
2022-09-07T01:23:07.212Z,5.85
2022-09-07T01:25:43.031Z,6.57
2022-09-07T01:28:17.601Z,5.97
2022-09-07T01:30:53.226Z,6.35
2022-09-07T01:33:39.514Z,6.45
2022-09-07T01:36:17.893Z,7.00
2022-09-07T01:38:48.858Z,6.05
2022-09-07T01:41:22.282Z,6.22
2022-09-07T01:43:55.773Z,6.18
2022-09-07T01:46:29.057Z,6.70
2022-09-07T01:49:04.228Z,5.55
2022-09-07T01:51:35.738Z,6.60
2022-09-07T01:54:09.617Z,5.78
2022-09-07T01:56:41.896Z,6.28
2022-09-07T01:59:16.550Z,7.03
2022-09-07T02:01:48.466Z,5.95
2022-09-07T02:04:20.097Z,6.10
2022-09-07T02:06:51.247Z,5.75
2022-09-07T02:09:24.132Z,6.68
2022-09-07T02:11:53.651Z,5.28
2022-09-07T02:14:29.004Z,6.00
2022-09-07T02:17:00.448Z,6.13
2022-09-07T02:19:45.391Z,6.20
2022-09-07T02:22:17.916Z,6.00
2022-09-07T02:24:51.197Z,5.50
2022-09-07T02:27:23.270Z,5.47
2022-09-07T02:29:54.332Z,6.25
2022-09-07T02:32:23.280Z,6.10
2022-09-07T02:34:52.034Z,6.47
2022-09-07T02:37:22.130Z,6.18
2022-09-07T02:39:51.047Z,6.68
2022-09-07T02:42:20.054Z,6.93
2022-09-07T02:44:49.566Z,5.82
2022-09-07T02:47:31.160Z,5.75
2022-09-07T02:50:19.507Z,7.10
2022-09-07T02:52:55.500Z,5.95
2022-09-07T02:55:30.339Z,7.05
2022-09-07T02:58:13.208Z,6.05
2022-09-07T03:00:46.194Z,5.80
2022-09-07T03:03:23.941Z,7.32
2022-09-07T03:05:58.887Z,6.22
2022-09-07T03:08:31.432Z,5.13
2022-09-07T03:11:00.299Z,5.72
2022-09-07T03:13:30.435Z,5.93
2022-09-07T03:15:59.210Z,5.72
2022-09-07T03:18:29.958Z,6.43
2022-09-07T03:20:58.905Z,6.22
2022-09-07T03:23:27.713Z,6.35
2022-09-07T03:25:56.124Z,6.07
2022-09-07T03:28:25.226Z,5.85
2022-09-07T03:30:54.238Z,5.75
2022-09-07T03:33:24.066Z,6.95
2022-09-07T03:36:00.569Z,6.68
2022-09-07T03:38:29.663Z,5.65
2022-09-07T03:41:00.236Z,5.43
2022-09-07T03:43:29.060Z,6.55
2022-09-07T03:45:59.132Z,5.95
2022-09-07T03:48:28.307Z,6.35
2022-09-07T03:51:00.844Z,5.40
2022-09-07T03:53:32.023Z,6.07
2022-09-07T03:56:01.737Z,5.78
2022-09-07T03:58:31.840Z,5.00
2022-09-07T04:01:01.749Z,6.47
2022-09-07T04:03:30.529Z,6.70
2022-09-07T04:06:01.155Z,5.60
2022-09-07T04:08:31.200Z,5.88
2022-09-07T04:11:00.817Z,6.63
2022-09-07T04:13:30.229Z,6.20
2022-09-07T04:15:59.265Z,6.35
2022-09-07T04:18:28.156Z,6.03
2022-09-07T04:21:01.212Z,6.45
2022-09-07T04:23:29.983Z,6.55
2022-09-07T04:25:58.807Z,5.90
2022-09-07T04:28:27.401Z,5.45
2022-09-07T04:30:56.283Z,6.22
2022-09-07T04:33:25.106Z,6.85
2022-09-07T04:35:53.933Z,6.10
2022-09-07T04:38:24.075Z,5.80
2022-09-07T04:41:00.367Z,6.20
2022-09-07T04:43:29.580Z,6.78
2022-09-07T04:45:58.486Z,5.38
2022-09-07T04:48:27.411Z,6.07
2022-09-07T04:50:56.485Z,6.95
2022-09-07T04:53:26.623Z,5.82
2022-09-07T04:55:55.113Z,5.95
2022-09-07T04:58:24.007Z,6.30
2022-09-07T05:00:52.836Z,5.65
2022-09-07T05:03:21.687Z,5.45
2022-09-07T05:05:50.529Z,5.05
2022-09-07T05:08:19.211Z,5.85
2022-09-07T05:10:53.609Z,5.43
2022-09-07T05:13:22.530Z,6.30
2022-09-07T05:15:51.236Z,6.85
2022-09-07T05:18:20.043Z,6.13
2022-09-07T05:20:48.780Z,4.85
2022-09-07T05:23:17.496Z,5.50
2022-09-07T05:25:46.368Z,7.53
2022-09-07T05:28:19.553Z,6.05
2022-09-07T05:36:28.027Z,4.95
2022-09-07T05:38:57.398Z,4.88
2022-09-07T05:41:27.530Z,5.43
2022-09-07T05:49:15.046Z,5.40
2022-09-07T05:51:43.821Z,5.45
2022-09-07T05:54:12.629Z,4.90
2022-09-07T05:56:41.422Z,6.53
2022-09-07T05:59:11.694Z,7.00
2022-09-07T06:01:40.541Z,6.18
2022-09-07T06:04:09.368Z,5.40
2022-09-07T06:06:40.724Z,6.10
2022-09-07T06:09:12.681Z,5.30
2022-09-07T06:11:42.310Z,6.15
2022-09-07T06:14:13.288Z,5.68
2022-09-07T06:16:41.813Z,4.88
2022-09-07T06:19:10.803Z,4.88
2022-09-07T06:21:39.856Z,5.25
2022-09-07T06:24:08.764Z,4.78
2022-09-07T06:26:37.564Z,4.75
2022-09-07T06:29:06.541Z,5.35
2022-09-07T06:34:25.694Z,5.25
2022-09-07T06:36:54.387Z,4.32
2022-09-07T06:39:23.202Z,3.58
2022-09-07T06:42:00.484Z,4.28
2022-09-07T06:44:32.508Z,3.38
2022-09-07T06:47:03.778Z,3.88
2022-09-07T06:49:32.761Z,2.97
2022-09-07T06:52:01.530Z,3.58
2022-09-07T06:57:19.041Z,2.60
2022-09-07T06:59:47.780Z,3.10
2022-09-07T07:02:17.817Z,2.42
2022-09-07T07:04:46.732Z,2.67
2022-09-07T07:07:16.836Z,3.63
2022-09-07T07:09:45.616Z,3.42
2022-09-07T07:12:14.295Z,2.78
2022-09-07T07:14:45.146Z,2.45
2022-09-07T07:17:14.085Z,2.50
2022-09-07T07:19:43.937Z,2.30
2022-09-07T07:25:01.154Z,2.72
2022-09-07T07:27:32.656Z,2.17
2022-09-07T07:30:01.453Z,2.92
2022-09-07T07:32:30.269Z,2.00
2022-09-07T07:35:00.405Z,1.77
2022-09-07T07:37:28.786Z,1.65
2022-09-07T07:42:46.456Z,1.83
2022-09-07T07:48:05.393Z,2.20
2022-09-07T07:50:35.536Z,2.05
2022-09-07T07:55:54.098Z,1.70
2022-09-07T07:58:22.764Z,1.65
2022-09-07T08:00:54.883Z,1.42
2022-09-07T08:03:25.308Z,1.30
2022-09-07T08:05:55.909Z,1.17
2022-09-07T08:08:25.218Z,0.93
2022-09-07T08:10:54.860Z,1.20
2022-09-07T08:13:23.693Z,1.10
2022-09-07T08:15:52.498Z,1.20
2022-09-07T08:18:21.271Z,1.25
2022-09-07T08:20:50.041Z,1.00
2022-09-07T08:23:20.676Z,1.10
2022-09-07T08:25:52.795Z,1.17
2022-09-07T08:28:22.176Z,0.98
2022-09-07T08:30:50.993Z,0.80
2022-09-07T08:33:19.937Z,0.57
2022-09-07T08:35:58.918Z,1.00
2022-09-07T08:38:30.662Z,0.85
2022-09-07T08:40:59.388Z,1.23
2022-09-07T08:43:39.516Z,1.20
2022-09-07T08:48:39.859Z,0.93
2022-09-07T08:51:12.547Z,1.10
2022-09-07T08:53:45.883Z,1.42
2022-09-07T08:56:20.687Z,2.63
2022-09-07T08:58:50.275Z,1.40
2022-09-07T09:01:36.143Z,1.30
2022-09-07T09:04:22.425Z,0.98
2022-09-07T09:07:11.697Z,1.38
2022-09-07T09:09:58.715Z,1.00
2022-09-07T09:12:37.567Z,1.42
2022-09-07T09:15:14.790Z,1.25
2022-09-07T09:17:48.795Z,0.98
2022-09-07T09:20:24.633Z,1.00
2022-09-07T09:22:53.298Z,1.20
2022-09-07T09:25:27.293Z,1.13
2022-09-07T09:27:55.983Z,1.55
2022-09-07T09:30:26.645Z,1.47
2022-09-07T09:33:15.241Z,1.10
2022-09-07T09:35:44.557Z,1.20
2022-09-07T09:38:37.541Z,0.85
2022-09-07T09:41:08.991Z,1.00
2022-09-07T09:43:42.573Z,1.40
2022-09-07T09:46:21.128Z,1.40
2022-09-07T09:48:58.275Z,1.05
2022-09-07T09:54:24.261Z,0.88
2022-09-07T09:56:54.332Z,1.30
2022-09-07T10:05:29.160Z,1.10
2022-09-07T10:07:58.061Z,1.48
2022-09-07T10:10:27.994Z,0.90
2022-09-07T10:12:58.615Z,1.10
2022-09-07T10:15:33.688Z,0.70
2022-09-07T10:18:07.002Z,1.00
2022-09-07T10:20:37.641Z,1.23
2022-09-07T10:23:10.695Z,1.15
2022-09-07T10:25:40.952Z,0.82
2022-09-07T10:28:19.709Z,0.90
2022-09-07T10:31:03.383Z,0.80
2022-09-07T10:33:41.635Z,0.90
2022-09-07T10:36:15.574Z,0.75
2022-09-07T10:38:48.755Z,0.88
2022-09-07T10:41:18.218Z,0.75
2022-09-07T10:43:50.137Z,0.75
2022-09-07T10:49:27.593Z,1.10
2022-09-07T10:52:12.126Z,1.05
2022-09-07T10:54:53.781Z,1.02
2022-09-07T10:57:33.373Z,1.30
2022-09-07T11:00:09.895Z,1.60
2022-09-07T11:06:00.766Z,0.90
2022-09-07T11:14:20.419Z,1.10
2022-09-07T11:16:53.559Z,0.93
2022-09-07T11:19:39.996Z,1.02
2022-09-07T11:22:17.492Z,1.02
2022-09-07T11:25:29.155Z,0.80
2022-09-07T11:27:42.369Z,0.95
2022-09-07T11:30:19.793Z,1.42
2022-09-07T11:32:54.920Z,0.70
2022-09-07T11:35:30.635Z,0.90
2022-09-07T11:38:04.093Z,1.02
2022-09-07T11:40:36.033Z,0.90
2022-09-07T11:43:11.529Z,1.20
2022-09-07T11:45:42.920Z,0.70
2022-09-07T11:48:19.494Z,0.95
2022-09-07T11:50:51.377Z,1.45
2022-09-07T11:53:22.304Z,1.35
2022-09-07T11:55:56.450Z,0.75
2022-09-07T11:58:52.987Z,1.20
2022-09-07T12:01:30.159Z,1.20
2022-09-07T12:04:25.058Z,1.35
2022-09-07T12:07:27.682Z,1.55
2022-09-07T12:10:08.669Z,1.00
2022-09-07T12:13:09.563Z,0.98
2022-09-07T12:15:46.437Z,0.98
2022-09-07T12:18:29.337Z,1.00
2022-09-07T12:20:59.619Z,1.02
2022-09-07T12:23:30.757Z,0.85
2022-09-07T12:26:34.676Z,0.90
2022-09-07T12:29:20.820Z,0.70
2022-09-07T12:31:58.700Z,0.82
2022-09-07T12:34:55.086Z,0.95
2022-09-07T12:37:44.626Z,0.80
2022-09-07T12:43:34.269Z,1.13
2022-09-07T12:46:03.418Z,1.13
2022-09-07T12:48:46.821Z,1.08
2022-09-07T12:54:20.145Z,1.08
2022-09-07T13:00:00.947Z,1.17
2022-09-07T13:02:41.938Z,1.33
2022-09-07T13:05:18.481Z,1.45
2022-09-07T13:08:20.130Z,1.80
2022-09-07T13:10:50.337Z,1.67
2022-09-07T13:16:30.718Z,1.92
2022-09-07T13:19:02.033Z,1.27
2022-09-07T13:21:35.529Z,1.20
2022-09-07T13:24:47.629Z,1.10
2022-09-07T13:27:44.730Z,0.90
2022-09-07T13:30:31.230Z,1.05
2022-09-07T13:33:38.658Z,1.15
2022-09-07T13:36:15.290Z,0.90
2022-09-07T13:38:44.185Z,1.20
2022-09-07T13:41:15.075Z,0.90
2022-09-07T13:43:49.251Z,0.82
2022-09-07T13:46:43.318Z,1.10
2022-09-07T13:49:24.112Z,0.90
2022-09-07T13:51:59.130Z,1.02
2022-09-07T13:54:37.259Z,1.10
2022-09-07T13:57:13.649Z,1.10
2022-09-07T13:59:44.355Z,1.52
2022-09-07T14:02:24.072Z,1.00
2022-09-07T14:04:54.952Z,1.10
2022-09-07T14:07:29.672Z,0.88
2022-09-07T14:10:13.685Z,1.13
2022-09-07T14:12:47.739Z,1.00
2022-09-07T14:15:22.532Z,1.00
2022-09-07T14:17:56.163Z,1.08
2022-09-07T14:20:25.751Z,1.20
2022-09-07T14:22:56.391Z,1.48
2022-09-07T14:25:26.446Z,1.08
2022-09-07T14:27:57.864Z,1.00
2022-09-07T14:30:29.554Z,1.10
2022-09-07T14:33:01.078Z,0.98
2022-09-07T14:35:33.623Z,1.10
2022-09-07T14:38:07.465Z,0.82
2022-09-07T14:40:36.868Z,0.82
2022-09-07T14:43:05.947Z,1.10
2022-09-07T14:45:37.810Z,1.27
2022-09-07T14:48:14.759Z,1.50
2022-09-07T14:50:57.207Z,1.08
2022-09-07T14:53:34.963Z,1.02
2022-09-07T14:56:09.292Z,1.30
2022-09-07T14:58:37.704Z,1.25
2022-09-07T15:04:18.706Z,1.30
2022-09-07T15:07:03.290Z,1.23
2022-09-07T15:09:37.436Z,1.20
2022-09-07T15:12:33.028Z,1.38
2022-09-07T15:15:26.160Z,1.60
2022-09-07T15:18:03.166Z,1.27
2022-09-07T15:20:41.351Z,1.38
2022-09-07T15:23:13.201Z,1.80
2022-09-07T15:25:46.561Z,1.48
2022-09-07T15:34:09.853Z,2.00
2022-09-07T15:36:40.558Z,2.03
2022-09-07T15:39:17.158Z,1.95
2022-09-07T15:41:47.043Z,2.20
2022-09-07T15:44:16.290Z,2.05
2022-09-07T15:47:43.225Z,2.42
2022-09-07T15:49:35.327Z,1.97
2022-09-07T15:52:05.244Z,2.15
2022-09-07T15:54:36.644Z,1.73
2022-09-07T15:59:57.131Z,1.85
2022-09-07T16:05:15.904Z,1.70
2022-09-07T16:10:36.679Z,1.73
2022-09-07T16:13:11.170Z,1.90
2022-09-07T16:15:45.851Z,1.55
2022-09-07T16:18:16.792Z,1.38
2022-09-07T16:20:52.190Z,1.83
2022-09-07T16:23:21.323Z,1.95
2022-09-07T16:25:59.639Z,1.70
2022-09-07T16:28:28.605Z,1.88
2022-09-07T16:30:57.908Z,1.90
2022-09-07T16:33:33.154Z,1.85
2022-09-07T16:36:09.373Z,1.60
2022-09-07T16:38:47.078Z,2.50
2022-09-07T16:41:17.253Z,1.80
2022-09-07T16:43:46.117Z,2.08
2022-09-07T16:46:16.959Z,1.70
2022-09-07T16:48:46.109Z,1.88
2022-09-07T16:51:19.547Z,1.70
2022-09-07T16:53:50.309Z,2.20
2022-09-07T16:56:20.518Z,2.05
2022-09-07T16:58:50.524Z,2.20
2022-09-07T17:01:20.903Z,2.67
2022-09-07T17:03:50.594Z,1.80
2022-09-07T17:06:22.747Z,2.22
2022-09-07T17:08:51.675Z,2.08
2022-09-07T17:11:21.998Z,2.10
2022-09-07T17:13:50.788Z,3.47
2022-09-07T17:16:21.852Z,2.60
2022-09-07T17:21:42.016Z,2.90
2022-09-07T17:24:11.975Z,2.60
2022-09-07T17:26:42.567Z,2.60
2022-09-07T17:29:13.168Z,3.55
2022-09-07T17:34:33.184Z,2.80
2022-09-07T17:37:03.419Z,2.70
2022-09-07T17:39:33.545Z,2.97
2022-09-07T17:42:02.678Z,2.67
2022-09-07T17:44:37.634Z,3.22
2022-09-07T17:47:07.430Z,2.85
2022-09-07T17:49:35.991Z,3.05
2022-09-07T17:52:08.992Z,2.83
2022-09-07T17:54:38.017Z,2.88
2022-09-07T17:57:07.172Z,3.38
2022-09-07T18:02:24.716Z,3.33
2022-09-07T18:04:53.166Z,3.15
2022-09-07T18:07:23.546Z,3.45
2022-09-07T18:09:52.812Z,3.63
2022-09-07T18:12:22.679Z,3.58
2022-09-07T18:14:51.363Z,3.45
2022-09-07T18:17:20.053Z,3.33
2022-09-07T18:19:48.478Z,2.95
2022-09-07T18:22:17.245Z,3.47
2022-09-07T18:24:47.419Z,3.45
2022-09-07T18:27:16.240Z,2.85
2022-09-07T18:29:45.230Z,3.17
2022-09-07T18:32:14.142Z,3.47
2022-09-07T18:34:46.953Z,4.28
2022-09-07T18:37:19.381Z,3.42
2022-09-07T18:39:50.230Z,3.35
2022-09-07T18:42:19.158Z,3.35
2022-09-07T18:47:39.899Z,3.92
2022-09-07T18:50:09.587Z,2.95
2022-09-07T18:52:59.182Z,2.95
2022-09-07T18:55:29.100Z,3.05
2022-09-07T18:57:58.015Z,3.40
2022-09-07T19:00:27.057Z,3.33
2022-09-07T19:02:55.921Z,2.97
2022-09-07T19:08:13.693Z,4.00
2022-09-07T19:10:44.493Z,3.40
2022-09-07T19:13:13.998Z,3.45
2022-09-07T19:15:42.737Z,3.60
2022-09-07T19:18:12.878Z,3.90
2022-09-07T19:20:41.612Z,3.75
2022-09-07T19:23:10.476Z,4.18
2022-09-07T19:25:43.467Z,3.83
2022-09-07T19:28:12.351Z,4.22
2022-09-07T19:30:41.291Z,4.10
2022-09-07T19:33:12.208Z,3.97
2022-09-07T19:35:40.918Z,4.13
2022-09-07T19:38:09.743Z,3.78
2022-09-07T19:40:38.151Z,4.25
2022-09-07T19:43:08.367Z,4.03
2022-09-07T19:45:39.717Z,4.15
2022-09-07T19:48:09.634Z,4.70
2022-09-07T19:50:39.391Z,4.53
2022-09-07T19:53:08.109Z,4.50
2022-09-07T19:55:36.899Z,4.80
2022-09-07T19:58:08.033Z,4.75
2022-09-07T20:00:41.467Z,4.43
2022-09-07T20:03:10.893Z,4.47
2022-09-07T20:05:40.237Z,5.60
2022-09-07T20:08:09.362Z,4.03
2022-09-07T20:10:38.192Z,4.88
2022-09-07T20:13:06.939Z,4.65
2022-09-07T20:15:35.605Z,5.13
2022-09-07T20:18:05.900Z,5.22
2022-09-07T20:20:34.861Z,4.82
2022-09-07T20:23:03.621Z,4.93
2022-09-07T20:25:32.208Z,5.25
2022-09-07T20:28:01.055Z,5.32
2022-09-07T20:30:33.531Z,4.93
2022-09-07T20:33:02.646Z,6.35
2022-09-07T20:35:34.525Z,4.45
2022-09-07T20:38:04.672Z,4.95
2022-09-07T20:40:33.655Z,5.65
2022-09-07T20:43:02.409Z,5.13
2022-09-07T20:45:36.276Z,4.38
2022-09-07T20:48:05.142Z,4.82
2022-09-07T20:50:35.256Z,6.32
2022-09-07T20:53:04.000Z,5.75
2022-09-07T20:55:32.360Z,4.65
2022-09-07T20:58:01.089Z,5.18
2022-09-07T21:00:30.037Z,4.85
2022-09-07T21:02:58.736Z,4.72
2022-09-07T21:05:27.579Z,4.13
2022-09-07T21:07:57.377Z,4.20
2022-09-07T21:10:26.158Z,4.68
2022-09-07T21:12:55.793Z,6.30
2022-09-07T21:15:24.559Z,4.83
2022-09-07T21:17:53.198Z,4.47
2022-09-07T21:20:21.865Z,4.82
2022-09-07T21:22:50.207Z,5.05
2022-09-07T21:25:20.223Z,4.55
2022-09-07T21:27:48.936Z,5.13
2022-09-07T21:30:17.728Z,4.72
2022-09-07T21:32:46.384Z,5.20
2022-09-07T21:35:15.069Z,4.93
2022-09-07T21:37:43.842Z,4.65
2022-09-07T21:40:13.071Z,4.40
2022-09-07T21:42:43.277Z,5.22
2022-09-07T21:45:12.090Z,4.95
2022-09-07T21:47:43.106Z,4.72
2022-09-07T21:50:11.790Z,4.30
2022-09-07T21:52:40.276Z,4.93
2022-09-07T21:55:09.985Z,5.30
2022-09-07T21:57:38.832Z,5.20
2022-09-07T22:00:10.730Z,4.70
2022-09-07T22:02:39.526Z,4.78
2022-09-07T22:05:10.198Z,4.47
2022-09-07T22:07:38.564Z,4.53
2022-09-07T22:10:08.909Z,4.70
2022-09-07T22:12:37.652Z,4.10
2022-09-07T22:15:08.606Z,5.07
2022-09-07T22:17:37.342Z,4.82
2022-09-07T22:20:06.561Z,4.22
2022-09-07T22:22:35.628Z,4.05
2022-09-07T22:25:05.502Z,5.07
2022-09-07T22:27:34.194Z,4.82
2022-09-07T22:30:02.986Z,5.15
2022-09-07T22:32:33.046Z,5.60
2022-09-07T22:35:01.327Z,4.53
2022-09-07T22:37:29.244Z,4.93
2022-09-07T22:39:57.591Z,4.25
2022-09-07T22:42:26.534Z,4.55
2022-09-07T22:44:55.270Z,4.80
2022-09-07T22:47:23.617Z,4.53
2022-09-07T22:49:53.367Z,4.68
2022-09-07T22:52:24.060Z,4.57
2022-09-07T22:54:52.341Z,4.78
2022-09-07T22:57:20.664Z,4.72
2022-09-07T22:59:48.909Z,4.95
2022-09-07T23:02:17.247Z,5.05
2022-09-07T23:04:45.289Z,5.40
2022-09-07T23:07:17.325Z,5.30
2022-09-07T23:09:46.979Z,5.45
2022-09-07T23:12:15.542Z,5.13
2022-09-07T23:14:43.854Z,5.07
2022-09-07T23:17:12.430Z,5.00
2022-09-07T23:19:40.310Z,5.03
2022-09-07T23:22:08.593Z,5.40
2022-09-07T23:24:40.248Z,4.57
2022-09-07T23:27:08.526Z,4.45
2022-09-07T23:29:36.790Z,5.18
2022-09-07T23:32:05.175Z,4.40
2022-09-07T23:34:33.000Z,4.90
2022-09-07T23:37:01.170Z,4.68
2022-09-07T23:39:29.732Z,4.93
2022-09-07T23:41:59.705Z,4.75
2022-09-07T23:44:27.874Z,5.82
2022-09-07T23:46:55.832Z,4.68
2022-09-07T23:49:24.154Z,4.72
2022-09-07T23:51:52.705Z,4.25
2022-09-07T23:54:21.053Z,5.07
2022-09-07T23:56:49.432Z,4.53
2022-09-07T23:59:18.972Z,5.00
